createdAt,value
2023-02-28T00:04:21.461Z,78.40
2023-02-28T00:09:23.223Z,52.90
2023-02-28T00:14:25.101Z,40.50
2023-02-28T00:19:26.795Z,44.60
2023-02-28T00:24:28.553Z,35.60
2023-02-28T00:29:30.329Z,29.20
2023-02-28T00:34:38.151Z,30.10
2023-02-28T00:39:41.356Z,40.40
2023-02-28T00:44:43.050Z,37.80
2023-02-28T00:49:44.795Z,48.50
2023-02-28T00:54:46.570Z,78.30
2023-02-28T00:59:48.350Z,50.90
2023-02-28T01:04:50.269Z,35.90
2023-02-28T01:09:52.212Z,51.10
2023-02-28T01:14:54.090Z,54.20
2023-02-28T01:19:56.695Z,31.00
2023-02-28T01:24:58.476Z,34.20
2023-02-28T01:30:00.328Z,42.00
2023-02-28T01:35:02.930Z,38.00
2023-02-28T01:40:06.364Z,34.30
2023-02-28T01:45:34.844Z,28.00
2023-02-28T01:55:49.034Z,28.10
2023-02-28T02:00:51.627Z,31.60
2023-02-28T02:05:53.349Z,24.10
2023-02-28T02:10:59.856Z,26.20
2023-02-28T02:16:45.084Z,23.20
2023-02-28T02:21:58.937Z,25.40
2023-02-28T02:27:51.231Z,29.70
2023-02-28T02:33:11.304Z,21.90
2023-02-28T02:38:40.417Z,25.30
2023-02-28T02:43:48.028Z,26.30
2023-02-28T02:48:55.437Z,33.70
2023-02-28T02:54:21.478Z,34.20
2023-02-28T02:59:25.137Z,28.50
2023-02-28T03:04:34.757Z,40.60
2023-02-28T03:09:36.434Z,30.60
2023-02-28T03:15:26.128Z,34.70
2023-02-28T03:21:27.920Z,36.40
2023-02-28T03:26:31.837Z,35.90
2023-02-28T03:31:49.284Z,29.80
2023-02-28T03:36:59.270Z,31.60
2023-02-28T03:42:34.555Z,27.50
2023-02-28T03:47:53.021Z,29.30
2023-02-28T03:53:10.750Z,26.40
2023-02-28T03:58:47.734Z,32.10
2023-02-28T04:03:51.151Z,40.20
2023-02-28T04:08:53.639Z,51.30
2023-02-28T04:13:55.410Z,55.00
2023-02-28T04:19:02.608Z,47.90
2023-02-28T04:24:05.919Z,47.40
2023-02-28T04:29:08.008Z,47.60
2023-02-28T04:34:10.123Z,54.70
2023-02-28T04:39:12.781Z,55.80
2023-02-28T04:44:15.587Z,64.30
2023-02-28T04:49:17.358Z,64.50
2023-02-28T04:54:19.333Z,66.80
2023-02-28T04:59:21.034Z,64.90
2023-02-28T05:04:22.848Z,55.30
2023-02-28T05:09:24.567Z,56.30
2023-02-28T05:14:26.254Z,58.40
2023-02-28T05:19:28.623Z,49.90
2023-02-28T05:24:30.419Z,43.40
2023-02-28T05:29:32.065Z,48.70
2023-02-28T05:34:33.842Z,48.30
2023-02-28T05:39:35.648Z,50.00
2023-02-28T05:44:37.493Z,40.70
2023-02-28T05:49:39.169Z,34.60
2023-02-28T05:54:41.806Z,32.90
2023-02-28T05:59:43.516Z,28.20
2023-02-28T06:04:45.972Z,31.60
2023-02-28T06:09:48.319Z,31.90
2023-02-28T06:14:50.092Z,22.80
2023-02-28T06:19:51.808Z,35.00
2023-02-28T06:24:53.570Z,30.00
2023-02-28T06:29:58.492Z,33.30
2023-02-28T06:35:00.267Z,87.80
2023-02-28T06:40:02.263Z,122.80
2023-02-28T06:45:09.443Z,81.30
2023-02-28T06:50:13.445Z,90.70
2023-02-28T06:55:15.103Z,66.90
2023-02-28T07:00:18.004Z,49.70
2023-02-28T07:05:19.724Z,47.50
2023-02-28T07:10:21.434Z,49.10
2023-02-28T07:15:23.164Z,62.30
2023-02-28T07:20:25.563Z,42.90
2023-02-28T07:25:29.697Z,27.50
2023-02-28T07:30:31.672Z,18.60
2023-02-28T07:35:33.842Z,17.50
2023-02-28T07:40:36.864Z,9.90
2023-02-28T07:45:38.941Z,11.30
2023-02-28T07:50:40.646Z,16.30
2023-02-28T07:55:42.606Z,16.00
2023-02-28T08:00:44.292Z,11.30
2023-02-28T08:05:46.284Z,22.60
2023-02-28T08:10:48.127Z,8.10
2023-02-28T08:15:50.032Z,12.80
2023-02-28T08:20:52.081Z,20.90
2023-02-28T08:25:57.488Z,12.80
2023-02-28T08:30:59.624Z,25.70
2023-02-28T08:36:01.475Z,20.90
2023-02-28T08:41:11.981Z,21.80
2023-02-28T08:46:14.802Z,23.10
2023-02-28T08:51:21.901Z,21.40
2023-02-28T08:56:24.161Z,11.60
2023-02-28T09:01:29.776Z,15.80
2023-02-28T09:06:32.852Z,8.80
2023-02-28T09:11:36.354Z,9.40
2023-02-28T09:16:38.325Z,4.60
2023-02-28T09:21:41.230Z,6.80
2023-02-28T09:26:55.844Z,5.20
2023-02-28T09:32:06.312Z,5.30
2023-02-28T09:37:08.275Z,3.70
2023-02-28T09:42:25.619Z,8.70
2023-02-28T09:47:39.880Z,8.70
2023-02-28T09:52:44.526Z,5.00
2023-02-28T09:57:47.354Z,5.60
2023-02-28T10:03:01.027Z,9.10
2023-02-28T10:08:22.001Z,10.20
2023-02-28T10:13:37.081Z,8.30
2023-02-28T10:18:52.705Z,8.40
2023-02-28T10:24:16.688Z,4.80
2023-02-28T10:29:18.358Z,3.00
2023-02-28T10:34:20.131Z,6.60
2023-02-28T10:39:46.172Z,6.50
2023-02-28T10:44:48.667Z,5.80
2023-02-28T10:49:53.141Z,10.40
2023-02-28T10:55:21.356Z,7.70
2023-02-28T11:00:26.027Z,2.10
2023-02-28T11:05:31.314Z,4.00
2023-02-28T11:10:36.557Z,3.40
2023-02-28T11:15:38.982Z,2.20
2023-02-28T11:20:41.643Z,5.90
2023-02-28T11:25:51.816Z,6.00
2023-02-28T11:31:11.647Z,4.10
2023-02-28T11:36:19.407Z,4.00
2023-02-28T11:41:57.349Z,5.50
2023-02-28T11:47:31.993Z,4.60
2023-02-28T11:52:53.121Z,6.20
2023-02-28T11:58:34.527Z,5.70
2023-02-28T12:04:16.353Z,2.90
2023-02-28T12:10:14.694Z,7.00
2023-02-28T12:15:31.489Z,9.30
2023-02-28T12:20:45.844Z,7.00
2023-02-28T12:26:12.298Z,11.10
2023-02-28T12:31:23.673Z,18.40
2023-02-28T12:36:26.901Z,6.50
2023-02-28T12:41:46.915Z,9.20
2023-02-28T12:46:55.367Z,9.10
2023-02-28T12:52:00.159Z,5.90
2023-02-28T12:57:40.878Z,6.00
2023-02-28T13:03:20.260Z,8.50
2023-02-28T13:08:58.965Z,4.60
2023-02-28T13:14:16.856Z,5.00
2023-02-28T13:19:23.633Z,3.40
2023-02-28T13:24:55.315Z,3.10
2023-02-28T13:29:57.476Z,4.40
2023-02-28T13:34:59.138Z,7.00
2023-02-28T13:40:37.477Z,4.40
2023-02-28T13:45:40.275Z,5.40
2023-02-28T13:50:43.482Z,6.20
2023-02-28T13:56:10.555Z,8.10
2023-02-28T14:01:17.540Z,6.60
2023-02-28T14:06:34.583Z,3.60
2023-02-28T14:11:40.900Z,5.10
2023-02-28T14:16:50.503Z,3.90
2023-02-28T14:22:11.042Z,9.00
2023-02-28T14:27:27.250Z,7.40
2023-02-28T14:33:26.985Z,6.50
2023-02-28T14:38:40.846Z,9.70
2023-02-28T14:44:01.309Z,4.70
2023-02-28T14:49:07.645Z,8.40
2023-02-28T14:54:25.703Z,11.00
2023-02-28T14:59:36.174Z,11.10
2023-02-28T15:04:38.037Z,12.10
2023-02-28T15:09:40.144Z,7.80
2023-02-28T15:14:44.830Z,15.30
2023-02-28T15:19:53.277Z,14.80
2023-02-28T15:24:56.620Z,13.60
2023-02-28T15:30:06.487Z,14.10
2023-02-28T15:35:30.890Z,11.40
2023-02-28T15:40:41.786Z,19.80
2023-02-28T15:45:53.314Z,24.20
2023-02-28T15:51:09.925Z,20.90
2023-02-28T15:56:34.644Z,16.70
2023-02-28T16:01:39.241Z,16.80
2023-02-28T16:07:02.026Z,21.40
2023-02-28T16:12:05.837Z,28.90
2023-02-28T16:17:27.599Z,30.70
2023-02-28T16:22:29.367Z,52.00
2023-02-28T16:27:36.481Z,65.00
2023-02-28T16:32:38.556Z,57.00
2023-02-28T16:37:41.768Z,40.00
2023-02-28T16:42:46.634Z,15.80
2023-02-28T16:47:48.910Z,22.10
2023-02-28T16:52:54.916Z,23.90
2023-02-28T16:58:00.796Z,30.70
2023-02-28T17:03:04.176Z,27.60
2023-02-28T17:08:07.598Z,73.20
2023-02-28T17:13:15.267Z,50.20
2023-02-28T17:18:21.549Z,39.80
2023-02-28T17:23:23.356Z,39.30
2023-02-28T17:28:25.538Z,47.40
2023-02-28T17:33:27.297Z,38.20
2023-02-28T17:38:29.423Z,24.10
2023-02-28T17:43:31.261Z,36.10
2023-02-28T17:48:36.316Z,46.30
2023-02-28T17:53:38.107Z,74.70
2023-02-28T17:58:40.084Z,63.70
2023-02-28T18:03:42.064Z,130.80
2023-02-28T18:08:44.023Z,100.20
2023-02-28T18:13:48.614Z,113.70
2023-02-28T18:18:50.361Z,59.70
2023-02-28T18:23:52.842Z,43.60
2023-02-28T18:28:54.601Z,93.80
2023-02-28T18:33:56.584Z,99.20
2023-02-28T18:38:59.399Z,78.00
2023-02-28T18:44:10.375Z,64.30
2023-02-28T18:49:17.067Z,39.90
2023-02-28T18:54:19.258Z,43.70
2023-02-28T18:59:21.940Z,46.00
2023-02-28T19:04:24.163Z,51.20
2023-02-28T19:09:25.931Z,52.10
2023-02-28T19:14:27.804Z,48.50
2023-02-28T19:19:30.370Z,54.30
2023-02-28T19:24:32.248Z,42.60
2023-02-28T19:29:34.181Z,43.60
2023-02-28T19:34:35.906Z,47.60
2023-02-28T19:39:43.521Z,50.50
2023-02-28T19:44:45.619Z,40.80
2023-02-28T19:49:47.396Z,42.00
2023-02-28T19:54:49.255Z,37.30
2023-02-28T19:59:52.051Z,48.40
2023-02-28T20:04:58.136Z,41.90
2023-02-28T20:10:01.332Z,33.00
2023-02-28T20:15:04.157Z,31.10
2023-02-28T20:20:10.910Z,35.90
2023-02-28T20:25:12.717Z,53.70
2023-02-28T20:30:14.886Z,51.50
2023-02-28T20:35:16.869Z,59.60
2023-02-28T20:40:19.254Z,37.40
2023-02-28T20:45:21.336Z,23.30
2023-02-28T20:50:23.228Z,28.60
2023-02-28T20:55:25.111Z,30.70
2023-02-28T21:00:26.862Z,39.60
2023-02-28T21:05:28.670Z,20.80
2023-02-28T21:10:31.859Z,52.40
2023-02-28T21:15:38.019Z,51.30
2023-02-28T21:20:40.016Z,52.20
2023-02-28T21:25:41.686Z,61.80
2023-02-28T21:30:43.539Z,60.80
2023-02-28T21:35:47.067Z,59.20
2023-02-28T21:40:50.918Z,65.60
2023-02-28T21:45:52.898Z,51.60
2023-02-28T21:51:03.788Z,50.80
2023-02-28T21:56:14.665Z,57.30
2023-02-28T22:01:21.993Z,49.60
2023-02-28T22:06:32.095Z,30.90
2023-02-28T22:11:37.271Z,40.10
2023-02-28T22:16:50.714Z,32.40
2023-02-28T22:21:53.686Z,25.30
2023-02-28T22:26:55.716Z,26.10
2023-02-28T22:31:57.528Z,29.40
2023-02-28T22:36:59.266Z,24.20
2023-02-28T22:42:01.186Z,35.70
2023-02-28T22:47:03.038Z,43.20
2023-02-28T22:52:05.005Z,36.80
2023-02-28T22:57:07.002Z,31.40
2023-02-28T23:02:08.759Z,30.90
2023-02-28T23:07:10.530Z,34.00
2023-02-28T23:12:12.303Z,38.20
2023-02-28T23:17:15.006Z,35.10
2023-02-28T23:22:16.772Z,35.10
2023-02-28T23:27:18.545Z,34.50
2023-02-28T23:32:20.379Z,44.30
2023-02-28T23:37:22.877Z,29.60
2023-02-28T23:42:24.705Z,32.60
2023-02-28T23:47:26.915Z,30.80
2023-02-28T23:52:29.577Z,39.20
2023-02-28T23:57:31.367Z,47.60
